createdAt,value
2018-12-19T00:00:00.077Z,7.97
2018-12-19T00:01:00.065Z,7.98
2018-12-19T00:02:00.053Z,8.00
2018-12-19T00:03:00.041Z,8.16
2018-12-19T00:04:00.028Z,8.15
2018-12-19T00:05:00.018Z,8.12
2018-12-19T00:06:00.006Z,8.12
2018-12-19T00:06:59.997Z,8.03
2018-12-19T00:08:00.189Z,8.08
2018-12-19T00:09:03.146Z,8.03
2018-12-19T00:10:00.207Z,8.01
2018-12-19T00:10:59.944Z,8.13
2018-12-19T00:11:59.933Z,8.18
2018-12-19T00:12:59.922Z,8.20
2018-12-19T00:13:59.910Z,8.16
2018-12-19T00:14:59.897Z,8.28
2018-12-19T00:15:59.885Z,8.19
2018-12-19T00:16:59.874Z,8.27
2018-12-19T00:17:59.861Z,8.20
2018-12-19T00:18:59.849Z,8.16
2018-12-19T00:19:59.838Z,8.13
2018-12-19T00:20:59.826Z,8.09
2018-12-19T00:21:59.813Z,8.18
2018-12-19T00:22:59.802Z,8.12
2018-12-19T00:23:59.993Z,8.01
2018-12-19T00:24:59.782Z,8.12
2018-12-19T00:25:59.766Z,8.18
2018-12-19T00:26:59.755Z,8.09
2018-12-19T00:27:59.743Z,8.18
2018-12-19T00:28:59.732Z,8.15
2018-12-19T00:29:59.721Z,8.19
2018-12-19T00:30:59.708Z,8.18
2018-12-19T00:31:59.696Z,8.20
2018-12-19T00:32:59.685Z,8.18
2018-12-19T00:33:59.672Z,8.06
2018-12-19T00:34:59.660Z,8.13
2018-12-19T00:35:59.650Z,8.09
2018-12-19T00:36:59.638Z,8.00
2018-12-19T00:37:59.625Z,7.98
2018-12-19T00:38:59.613Z,8.01
2018-12-19T00:39:59.602Z,7.98
2018-12-19T00:40:59.590Z,8.00
2018-12-19T00:41:59.578Z,8.00
2018-12-19T00:42:59.566Z,8.03
2018-12-19T00:43:59.555Z,8.00
2018-12-19T00:44:59.544Z,8.13
2018-12-19T00:45:59.530Z,8.12
2018-12-19T00:46:59.519Z,8.18
2018-12-19T00:47:59.508Z,8.06
2018-12-19T00:48:59.496Z,8.10
2018-12-19T00:49:59.484Z,8.18
2018-12-19T00:50:59.472Z,8.15
2018-12-19T00:51:59.460Z,8.19
2018-12-19T00:52:59.448Z,8.27
2018-12-19T00:53:59.435Z,8.20
2018-12-19T00:54:59.426Z,8.27
2018-12-19T00:55:59.411Z,8.23
2018-12-19T00:56:59.400Z,8.20
2018-12-19T00:57:59.388Z,8.27
2018-12-19T00:58:59.375Z,8.31
2018-12-19T00:59:59.364Z,8.27
2018-12-19T01:00:59.360Z,8.37
2018-12-19T01:01:59.341Z,8.41
2018-12-19T01:02:59.331Z,8.48
2018-12-19T01:03:59.316Z,8.53
2018-12-19T01:04:59.304Z,8.53
2018-12-19T01:05:59.294Z,8.52
2018-12-19T01:06:59.280Z,8.52
2018-12-19T01:07:59.269Z,8.55
2018-12-19T01:08:59.256Z,8.53
2018-12-19T01:09:59.243Z,8.52
2018-12-19T01:10:59.231Z,8.48
2018-12-19T01:11:59.219Z,8.49
2018-12-19T01:12:59.209Z,8.51
2018-12-19T01:13:59.195Z,8.46
2018-12-19T01:14:59.183Z,8.52
2018-12-19T01:15:59.171Z,8.53
2018-12-19T01:16:59.160Z,8.63
2018-12-19T01:17:59.147Z,8.55
2018-12-19T01:18:59.135Z,8.64
2018-12-19T01:19:59.126Z,8.51
2018-12-19T01:20:59.112Z,8.52
2018-12-19T01:21:59.098Z,8.60
2018-12-19T01:22:59.089Z,8.55
2018-12-19T01:23:59.076Z,8.63
2018-12-19T01:24:59.063Z,8.61
2018-12-19T01:25:59.050Z,8.58
2018-12-19T01:26:59.041Z,8.64
2018-12-19T01:27:59.026Z,8.66
2018-12-19T01:28:59.014Z,8.63
2018-12-19T01:29:59.002Z,8.56
2018-12-19T01:30:58.997Z,8.49
2018-12-19T01:31:58.983Z,8.52
2018-12-19T01:32:58.966Z,8.53
2018-12-19T01:33:58.953Z,8.53
2018-12-19T01:34:58.942Z,8.46
2018-12-19T01:35:58.929Z,8.52
2018-12-19T01:36:58.917Z,8.53
2018-12-19T01:37:58.905Z,8.64
2018-12-19T01:38:58.892Z,8.63
2018-12-19T01:39:58.881Z,8.61
2018-12-19T01:40:58.869Z,8.61
2018-12-19T01:41:58.858Z,8.60
2018-12-19T01:42:58.844Z,8.63
2018-12-19T01:43:58.833Z,8.64
2018-12-19T01:44:58.821Z,8.60
2018-12-19T01:45:58.808Z,8.58
2018-12-19T01:46:58.799Z,8.64
2018-12-19T01:47:58.787Z,8.66
2018-12-19T01:48:58.772Z,8.61
2018-12-19T01:49:58.760Z,8.64
2018-12-19T01:50:58.748Z,8.58
2018-12-19T01:51:58.736Z,8.63
2018-12-19T01:52:58.724Z,8.51
2018-12-19T01:53:58.713Z,8.56
2018-12-19T01:54:58.700Z,8.53
2018-12-19T01:55:58.689Z,8.48
2018-12-19T01:56:58.679Z,8.46
2018-12-19T01:57:58.664Z,8.45
2018-12-19T01:58:58.652Z,8.48
2018-12-19T01:59:58.644Z,8.42
2018-12-19T02:00:58.629Z,8.48
2018-12-19T02:01:58.867Z,8.48
2018-12-19T02:02:58.612Z,8.42
2018-12-19T02:03:58.593Z,8.42
2018-12-19T02:04:58.582Z,8.53
2018-12-19T02:05:58.568Z,8.46
2018-12-19T02:06:58.556Z,8.37
2018-12-19T02:07:58.547Z,8.48
2018-12-19T02:08:58.533Z,8.48
2018-12-19T02:09:58.521Z,8.52
2018-12-19T02:10:58.509Z,8.52
2018-12-19T02:11:58.498Z,8.52
2018-12-19T02:12:58.489Z,8.58
2018-12-19T02:13:58.478Z,8.53
2018-12-19T02:14:58.461Z,8.56
2018-12-19T02:15:58.450Z,8.55
2018-12-19T02:16:58.437Z,8.56
2018-12-19T02:17:58.425Z,8.51
2018-12-19T02:18:58.417Z,8.53
2018-12-19T02:19:58.403Z,8.55
2018-12-19T02:20:58.390Z,8.58
2018-12-19T02:21:58.440Z,8.38
2018-12-19T02:22:58.365Z,8.42
2018-12-19T02:23:58.353Z,8.45
2018-12-19T02:24:58.344Z,8.48
2018-12-19T02:25:58.329Z,8.51
2018-12-19T02:26:58.318Z,8.49
2018-12-19T02:27:58.306Z,8.48
2018-12-19T02:28:58.302Z,8.45
2018-12-19T02:29:58.286Z,8.44
2018-12-19T02:30:58.269Z,8.41
2018-12-19T02:31:58.258Z,8.45
2018-12-19T02:32:58.246Z,8.38
2018-12-19T02:33:58.233Z,8.45
2018-12-19T02:34:58.226Z,8.42
2018-12-19T02:35:58.210Z,8.46
2018-12-19T02:36:58.197Z,8.49
2018-12-19T02:37:58.185Z,8.45
2018-12-19T02:38:58.172Z,8.49
2018-12-19T02:39:58.160Z,8.46
2018-12-19T02:40:58.149Z,8.49
2018-12-19T02:41:58.136Z,8.48
2018-12-19T02:42:58.124Z,8.45
2018-12-19T02:43:58.112Z,8.44
2018-12-19T02:44:58.107Z,8.46
2018-12-19T02:45:58.088Z,8.46
2018-12-19T02:46:58.074Z,8.49
2018-12-19T02:47:58.064Z,8.44
2018-12-19T02:48:58.051Z,8.44
2018-12-19T02:49:58.038Z,8.37
2018-12-19T02:50:58.026Z,8.41
2018-12-19T02:51:58.015Z,8.38
2018-12-19T02:52:58.003Z,8.41
2018-12-19T02:53:57.989Z,8.44
2018-12-19T02:54:57.979Z,8.41
2018-12-19T02:55:57.966Z,8.44
2018-12-19T02:56:57.963Z,8.38
2018-12-19T02:57:57.942Z,8.38
2018-12-19T02:58:58.273Z,8.34
2018-12-19T02:59:57.917Z,8.48
2018-12-19T03:00:57.911Z,8.42
2018-12-19T03:01:57.896Z,8.45
2018-12-19T03:02:57.881Z,8.45
2018-12-19T03:03:57.869Z,8.42
2018-12-19T03:04:57.857Z,8.44
2018-12-19T03:05:57.851Z,8.41
2018-12-19T03:06:57.833Z,8.42
2018-12-19T03:07:57.820Z,8.41
2018-12-19T03:08:57.809Z,8.36
2018-12-19T03:09:57.799Z,8.38
2018-12-19T03:10:57.784Z,8.27
2018-12-19T03:11:57.772Z,8.48
2018-12-19T03:12:57.760Z,8.42
2018-12-19T03:13:57.747Z,8.44
2018-12-19T03:14:57.735Z,8.42
2018-12-19T03:15:57.723Z,8.38
2018-12-19T03:16:57.913Z,8.55
2018-12-19T03:17:57.699Z,8.44
2018-12-19T03:18:57.688Z,8.49
2018-12-19T03:19:57.679Z,8.49
2018-12-19T03:20:57.663Z,8.49
2018-12-19T03:21:57.649Z,8.48
2018-12-19T03:22:57.637Z,8.53
2018-12-19T03:23:57.625Z,8.42
2018-12-19T03:24:57.614Z,8.46
2018-12-19T03:25:57.601Z,8.41
2018-12-19T03:26:57.589Z,8.49
2018-12-19T03:27:57.577Z,8.48
2018-12-19T03:28:57.569Z,8.52
2018-12-19T03:29:57.552Z,8.52
2018-12-19T03:30:57.541Z,8.53
2018-12-19T03:31:57.539Z,8.49
2018-12-19T03:32:57.518Z,8.52
2018-12-19T03:33:57.504Z,8.44
2018-12-19T03:34:57.491Z,8.53
2018-12-19T03:35:57.482Z,8.55
2018-12-19T03:36:57.467Z,8.55
2018-12-19T03:37:57.458Z,8.55
2018-12-19T03:38:57.444Z,8.49
2018-12-19T03:39:57.431Z,8.51
2018-12-19T03:40:57.419Z,8.46
2018-12-19T03:41:57.406Z,8.46
2018-12-19T03:42:57.397Z,8.46
2018-12-19T03:43:57.382Z,8.41
2018-12-19T03:44:57.371Z,8.49
2018-12-19T03:45:57.357Z,8.51
2018-12-19T03:46:57.352Z,8.46
2018-12-19T03:47:57.337Z,8.49
2018-12-19T03:48:57.528Z,8.49
2018-12-19T03:49:57.310Z,8.48
2018-12-19T03:50:57.297Z,8.52
2018-12-19T03:51:57.286Z,8.46
2018-12-19T03:52:57.274Z,8.49
2018-12-19T03:53:57.260Z,8.52
2018-12-19T03:54:57.249Z,8.52
2018-12-19T03:55:57.238Z,8.55
2018-12-19T03:56:57.230Z,8.56
2018-12-19T03:57:57.213Z,8.56
2018-12-19T03:58:57.200Z,8.61
2018-12-19T03:59:57.221Z,8.55
2018-12-19T04:00:57.176Z,8.58
2018-12-19T04:01:57.163Z,8.55
2018-12-19T04:02:57.152Z,8.52
2018-12-19T04:03:57.343Z,8.52
2018-12-19T04:04:57.132Z,8.45
2018-12-19T04:05:57.120Z,8.42
2018-12-19T04:06:57.104Z,8.48
2018-12-19T04:07:57.093Z,8.51
2018-12-19T04:08:57.080Z,8.56
2018-12-19T04:09:58.089Z,8.52
2018-12-19T04:10:57.057Z,8.53
2018-12-19T04:11:57.046Z,8.61
2018-12-19T04:12:57.033Z,8.49
2018-12-19T04:13:57.019Z,8.51
2018-12-19T04:14:57.007Z,8.63
2018-12-19T04:15:56.994Z,8.60
2018-12-19T04:16:56.982Z,8.60
2018-12-19T04:17:56.970Z,8.63
2018-12-19T04:18:57.208Z,8.60
2018-12-19T04:19:56.950Z,8.61
2018-12-19T04:20:56.940Z,8.61
2018-12-19T04:21:56.921Z,8.60
2018-12-19T04:22:56.917Z,8.58
2018-12-19T04:23:56.904Z,8.60
2018-12-19T04:24:56.885Z,8.48
2018-12-19T04:25:56.873Z,8.53
2018-12-19T04:26:56.861Z,8.51
2018-12-19T04:27:56.850Z,8.60
2018-12-19T04:28:56.838Z,8.58
2018-12-19T04:29:56.826Z,8.53
2018-12-19T04:30:56.813Z,8.51
2018-12-19T04:31:56.801Z,8.49
2018-12-19T04:32:56.789Z,8.51
2018-12-19T04:33:56.777Z,8.53
2018-12-19T04:34:56.764Z,8.52
2018-12-19T04:35:56.956Z,8.49
2018-12-19T04:36:56.745Z,8.45
2018-12-19T04:37:56.728Z,8.51
2018-12-19T04:38:56.717Z,8.53
2018-12-19T04:39:56.704Z,8.49
2018-12-19T04:40:56.693Z,8.48
2018-12-19T04:41:56.679Z,8.49
2018-12-19T04:42:56.674Z,8.58
2018-12-19T04:43:56.657Z,8.52
2018-12-19T04:44:56.645Z,8.60
2018-12-19T04:45:56.633Z,8.52
2018-12-19T04:46:56.620Z,8.51
2018-12-19T04:47:56.608Z,8.46
2018-12-19T04:48:56.597Z,8.48
2018-12-19T04:49:56.583Z,8.48
2018-12-19T04:50:56.571Z,8.53
2018-12-19T04:51:56.562Z,8.51
2018-12-19T04:52:56.552Z,8.49
2018-12-19T04:53:56.536Z,8.45
2018-12-19T04:54:56.523Z,8.48
2018-12-19T04:55:56.513Z,8.48
2018-12-19T04:56:56.499Z,8.49
2018-12-19T04:57:56.486Z,8.48
2018-12-19T04:58:56.484Z,8.45
2018-12-19T04:59:56.463Z,8.45
2018-12-19T05:00:56.452Z,8.51
2018-12-19T05:01:56.441Z,8.53
2018-12-19T05:02:56.427Z,8.49
2018-12-19T05:03:56.415Z,8.52
2018-12-19T05:04:56.404Z,8.53
2018-12-19T05:05:56.391Z,8.53
2018-12-19T05:06:56.380Z,8.48
2018-12-19T05:07:56.373Z,8.56
2018-12-19T05:08:56.358Z,8.49
2018-12-19T05:09:56.343Z,8.53
2018-12-19T05:10:56.332Z,8.63
2018-12-19T05:11:56.320Z,8.53
2018-12-19T05:12:56.308Z,8.58
2018-12-19T05:13:56.295Z,8.66
2018-12-19T05:14:56.283Z,8.66
2018-12-19T05:15:56.272Z,8.66
2018-12-19T05:16:56.260Z,8.63
2018-12-19T05:17:56.247Z,8.64
2018-12-19T05:18:56.235Z,8.51
2018-12-19T05:19:56.476Z,8.49
2018-12-19T05:20:56.212Z,8.42
2018-12-19T05:21:56.199Z,8.37
2018-12-19T05:22:56.187Z,8.33
2018-12-19T05:23:56.179Z,8.27
2018-12-19T05:24:56.164Z,8.33
2018-12-19T05:25:56.150Z,8.27
2018-12-19T05:26:56.139Z,8.27
2018-12-19T05:27:56.127Z,8.42
2018-12-19T05:28:56.123Z,8.41
2018-12-19T05:29:56.102Z,8.34
2018-12-19T05:30:56.093Z,8.37
2018-12-19T05:31:56.079Z,8.41
2018-12-19T05:32:56.067Z,8.44
2018-12-19T05:33:56.057Z,8.42
2018-12-19T05:34:56.043Z,8.52
2018-12-19T05:35:56.030Z,8.52
2018-12-19T05:36:56.019Z,8.52
2018-12-19T05:37:56.006Z,8.52
2018-12-19T05:38:55.994Z,8.55
2018-12-19T05:39:55.986Z,8.55
2018-12-19T05:40:55.971Z,8.55
2018-12-19T05:41:55.960Z,8.51
2018-12-19T05:42:55.946Z,8.64
2018-12-19T05:43:55.934Z,8.64
2018-12-19T05:44:55.926Z,8.67
2018-12-19T05:45:55.909Z,8.63
2018-12-19T05:46:55.898Z,8.56
2018-12-19T05:47:55.886Z,8.52
2018-12-19T05:48:55.874Z,8.46
2018-12-19T05:49:55.865Z,8.45
2018-12-19T05:50:55.850Z,8.30
2018-12-19T05:51:55.838Z,8.27
2018-12-19T05:52:55.826Z,8.30
2018-12-19T05:53:55.816Z,8.27
2018-12-19T05:54:55.802Z,8.28
2018-12-19T05:55:55.791Z,8.41
2018-12-19T05:56:55.778Z,8.34
2018-12-19T05:57:55.769Z,8.45
2018-12-19T05:58:55.754Z,8.41
2018-12-19T05:59:55.741Z,8.30
2018-12-19T06:00:55.730Z,8.33
2018-12-19T06:01:55.716Z,8.33
2018-12-19T06:02:55.706Z,8.31
2018-12-19T06:03:55.692Z,8.34
2018-12-19T06:04:55.681Z,8.20
2018-12-19T06:05:55.668Z,8.15
2018-12-19T06:06:55.655Z,8.12
2018-12-19T06:07:55.644Z,8.13
2018-12-19T06:08:55.631Z,8.05
2018-12-19T06:09:55.618Z,8.01
2018-12-19T06:10:55.611Z,8.03
2018-12-19T06:11:55.595Z,8.08
2018-12-19T06:12:55.583Z,7.98
2018-12-19T06:13:55.570Z,7.97
2018-12-19T06:14:55.557Z,8.00
2018-12-19T06:15:55.548Z,7.97
2018-12-19T06:16:55.535Z,7.97
2018-12-19T06:17:55.520Z,7.97
2018-12-19T06:18:55.508Z,8.00
2018-12-19T06:19:55.496Z,8.00
2018-12-19T06:20:55.483Z,8.01
2018-12-19T06:21:55.472Z,7.97
2018-12-19T06:22:55.460Z,8.05
2018-12-19T06:23:55.446Z,8.12
2018-12-19T06:24:55.434Z,8.19
2018-12-19T06:25:55.421Z,8.09
2018-12-19T06:26:55.409Z,8.06
2018-12-19T06:27:55.398Z,8.23
2018-12-19T06:28:55.385Z,8.27
2018-12-19T06:29:55.372Z,8.26
2018-12-19T06:30:55.360Z,8.27
2018-12-19T06:32:55.336Z,8.34
2018-12-19T06:33:55.323Z,8.30
2018-12-19T06:34:55.311Z,8.34
2018-12-19T06:35:55.299Z,8.27
2018-12-19T06:36:55.287Z,8.33
2018-12-19T06:37:55.435Z,8.28
2018-12-19T06:38:55.262Z,8.31
2018-12-19T06:39:55.250Z,8.30
2018-12-19T06:40:55.238Z,8.33
2018-12-19T06:41:55.224Z,8.42
2018-12-19T06:42:55.218Z,8.42
2018-12-19T06:43:55.201Z,8.36
2018-12-19T06:44:55.188Z,8.45
2018-12-19T06:45:55.176Z,8.46
2018-12-19T06:46:55.164Z,8.37
2018-12-19T06:47:55.152Z,8.41
2018-12-19T06:48:55.141Z,8.41
2018-12-19T06:49:55.127Z,8.34
2018-12-19T06:50:55.115Z,8.42
2018-12-19T06:51:55.103Z,8.45
2018-12-19T06:52:55.092Z,8.52
2018-12-19T06:53:55.079Z,8.55
2018-12-19T06:54:55.067Z,8.44
2018-12-19T06:55:55.054Z,8.56
2018-12-19T06:56:55.043Z,8.45
2018-12-19T06:57:55.030Z,8.38
2018-12-19T06:58:55.018Z,8.45
2018-12-19T06:59:55.006Z,8.55
2018-12-19T07:00:54.994Z,8.45
2018-12-19T07:01:54.981Z,8.44
2018-12-19T07:02:54.969Z,8.49
2018-12-19T07:03:55.159Z,8.53
2018-12-19T07:04:54.945Z,8.53
2018-12-19T07:05:54.932Z,8.60
2018-12-19T07:06:54.920Z,8.60
2018-12-19T07:07:54.908Z,8.49
2018-12-19T07:08:54.896Z,8.60
2018-12-19T07:09:54.883Z,8.51
2018-12-19T07:10:54.871Z,8.56
2018-12-19T07:11:54.859Z,8.61
2018-12-19T07:12:54.847Z,8.60
2018-12-19T07:13:54.834Z,8.55
2018-12-19T07:14:54.825Z,8.58
2018-12-19T07:15:54.810Z,8.61
2018-12-19T07:16:54.805Z,8.55
2018-12-19T07:17:54.789Z,8.60
2018-12-19T07:18:54.774Z,8.51
2018-12-19T07:19:54.762Z,8.51
2018-12-19T07:20:54.754Z,8.51
2018-12-19T07:21:54.737Z,8.66
2018-12-19T07:22:54.726Z,8.61
2018-12-19T07:23:54.714Z,8.63
2018-12-19T07:24:54.702Z,8.60
2018-12-19T07:25:54.689Z,8.60
2018-12-19T07:26:54.678Z,8.66
2018-12-19T07:27:54.666Z,8.79
2018-12-19T07:28:54.654Z,8.91
2018-12-19T07:29:54.641Z,8.99
2018-12-19T07:30:54.835Z,8.95
2018-12-19T07:31:54.618Z,8.82
2018-12-19T07:32:54.606Z,8.82
2018-12-19T07:33:54.597Z,8.82
2018-12-19T07:34:54.582Z,8.81
2018-12-19T07:35:54.570Z,8.74
2018-12-19T07:36:54.608Z,8.70
2018-12-19T07:37:54.546Z,8.69
2018-12-19T07:38:54.534Z,8.69
2018-12-19T07:39:54.528Z,8.74
2018-12-19T07:40:54.510Z,8.67
2018-12-19T07:41:54.500Z,8.69
2018-12-19T07:42:54.485Z,8.74
2018-12-19T07:43:54.475Z,8.71
2018-12-19T07:44:54.463Z,8.76
2018-12-19T07:45:54.451Z,8.73
2018-12-19T07:46:54.640Z,8.74
2018-12-19T07:47:54.426Z,8.76
2018-12-19T07:48:54.420Z,8.70
2018-12-19T07:49:54.411Z,8.74
2018-12-19T07:50:54.390Z,8.74
2018-12-19T07:51:54.379Z,8.70
2018-12-19T07:52:54.366Z,8.78
2018-12-19T07:53:54.353Z,8.88
2018-12-19T07:54:54.346Z,8.78
2018-12-19T07:55:54.330Z,8.84
2018-12-19T07:56:54.318Z,8.81
2018-12-19T07:57:54.307Z,8.74
2018-12-19T07:58:54.294Z,8.71
2018-12-19T07:59:54.281Z,8.61
2018-12-19T08:00:54.270Z,8.60
2018-12-19T08:01:54.257Z,8.61
2018-12-19T08:02:54.246Z,8.55
2018-12-19T08:03:54.239Z,8.53
2018-12-19T08:04:54.228Z,8.52
2018-12-19T08:05:54.209Z,8.58
2018-12-19T08:06:54.198Z,8.64
2018-12-19T08:07:54.186Z,8.63
2018-12-19T08:08:54.175Z,8.70
2018-12-19T08:09:54.161Z,8.73
2018-12-19T08:10:54.151Z,8.74
2018-12-19T08:11:54.139Z,8.74
2018-12-19T08:12:54.127Z,8.74
2018-12-19T08:13:54.122Z,8.71
2018-12-19T08:14:54.102Z,8.74
2018-12-19T08:15:54.091Z,8.71
2018-12-19T08:16:54.078Z,8.71
2018-12-19T08:17:54.065Z,8.76
2018-12-19T08:18:54.054Z,8.79
2018-12-19T08:19:54.043Z,8.78
2018-12-19T08:20:54.034Z,8.81
2018-12-19T08:21:54.022Z,8.82
2018-12-19T08:22:54.007Z,8.85
2018-12-19T08:23:53.994Z,8.81
2018-12-19T08:24:53.984Z,8.79
2018-12-19T08:25:53.971Z,8.82
2018-12-19T08:26:53.959Z,8.85
2018-12-19T08:27:53.968Z,8.91
2018-12-19T08:28:53.936Z,8.88
2018-12-19T08:29:53.928Z,8.81
2018-12-19T08:30:53.914Z,8.82
2018-12-19T08:31:53.904Z,8.88
2018-12-19T08:32:53.894Z,8.89
2018-12-19T08:33:53.880Z,8.91
2018-12-19T08:34:53.867Z,8.85
2018-12-19T08:35:53.855Z,8.87
2018-12-19T08:36:53.841Z,8.88
2018-12-19T08:37:53.830Z,8.92
2018-12-19T08:38:53.818Z,8.87
2018-12-19T08:39:53.808Z,8.89
2018-12-19T08:40:58.796Z,8.91
2018-12-19T08:41:53.798Z,8.92
2018-12-19T08:42:53.771Z,8.85
2018-12-19T08:43:53.760Z,8.89
2018-12-19T08:44:53.748Z,8.81
2018-12-19T08:45:53.735Z,8.88
2018-12-19T08:46:53.724Z,8.88
2018-12-19T08:47:53.713Z,8.91
2018-12-19T08:48:53.702Z,8.88
2018-12-19T08:49:53.690Z,8.88
2018-12-19T08:50:53.680Z,8.94
2018-12-19T08:51:53.667Z,9.02
2018-12-19T08:52:53.656Z,8.99
2018-12-19T08:53:53.643Z,9.00
2018-12-19T08:54:53.631Z,9.06
2018-12-19T08:55:53.627Z,9.02
2018-12-19T08:56:53.616Z,8.99
2018-12-19T08:57:53.596Z,8.95
2018-12-19T08:58:53.590Z,8.92
2018-12-19T08:59:53.574Z,8.99
2018-12-19T09:00:53.563Z,8.95
2018-12-19T09:01:53.550Z,8.94
2018-12-19T09:02:53.539Z,8.97
2018-12-19T09:03:53.531Z,8.95
2018-12-19T09:04:53.518Z,9.04
2018-12-19T09:05:53.511Z,8.92
2018-12-19T09:06:53.491Z,8.94
2018-12-19T09:07:53.483Z,8.97
2018-12-19T09:08:53.469Z,9.03
2018-12-19T09:09:53.461Z,9.10
2018-12-19T09:10:53.448Z,8.99
2018-12-19T09:11:53.432Z,8.99
2018-12-19T09:12:53.428Z,9.11
2018-12-19T09:14:53.398Z,9.08
2018-12-19T09:15:53.386Z,9.18
2018-12-19T09:16:53.374Z,9.14
2018-12-19T09:17:53.368Z,9.21
2018-12-19T09:18:53.350Z,9.14
2018-12-19T09:19:53.339Z,9.21
2018-12-19T09:20:53.328Z,9.19
2018-12-19T09:21:53.319Z,9.19
2018-12-19T09:22:53.302Z,9.22
2018-12-19T09:23:53.291Z,9.22
2018-12-19T09:24:53.283Z,9.26
2018-12-19T09:25:53.270Z,9.29
2018-12-19T09:26:53.255Z,9.34
2018-12-19T09:27:53.244Z,9.32
2018-12-19T09:28:53.232Z,9.29
2018-12-19T09:29:53.221Z,9.43
2018-12-19T09:30:53.214Z,9.44
2018-12-19T09:31:53.198Z,9.41
2018-12-19T09:32:53.189Z,9.37
2018-12-19T09:33:53.173Z,9.36
2018-12-19T09:34:53.161Z,9.39
2018-12-19T09:35:53.355Z,9.39
2018-12-19T09:36:53.149Z,9.40
2018-12-19T09:37:53.126Z,9.39
2018-12-19T09:38:53.115Z,9.41
2018-12-19T09:39:53.104Z,9.44
2018-12-19T09:40:53.299Z,9.40
2018-12-19T09:41:53.082Z,9.44
2018-12-19T09:42:53.073Z,9.44
2018-12-19T09:43:53.260Z,9.46
2018-12-19T09:44:53.046Z,9.48
2018-12-19T09:45:53.039Z,9.54
2018-12-19T09:46:53.026Z,9.56
2018-12-19T09:47:53.011Z,9.61
2018-12-19T09:48:53.001Z,9.56
2018-12-19T09:49:52.994Z,9.54
2018-12-19T09:50:52.979Z,9.62
2018-12-19T09:51:52.966Z,9.66
2018-12-19T09:52:52.955Z,9.68
2018-12-19T09:53:52.941Z,9.69
2018-12-19T09:54:52.931Z,9.84
2018-12-19T09:55:52.918Z,9.83
2018-12-19T09:56:53.520Z,9.79
2018-12-19T09:57:52.901Z,9.82
2018-12-19T09:58:52.883Z,9.86
2018-12-19T09:59:52.872Z,9.87
2018-12-19T10:00:52.861Z,9.89
2018-12-19T10:01:52.852Z,9.98
2018-12-19T10:02:52.837Z,9.94
2018-12-19T10:03:52.831Z,9.95
2018-12-19T10:04:52.815Z,9.98
2018-12-19T10:05:52.803Z,9.86
2018-12-19T10:06:52.793Z,9.95
2018-12-19T10:07:52.781Z,9.95
2018-12-19T10:08:52.768Z,10.04
2018-12-19T10:09:52.761Z,9.98
2018-12-19T10:10:52.745Z,10.02
2018-12-19T10:11:52.734Z,10.07
2018-12-19T10:12:52.722Z,10.04
2018-12-19T10:13:52.710Z,10.07
2018-12-19T10:14:52.699Z,10.13
2018-12-19T10:15:52.688Z,10.20
2018-12-19T10:16:52.677Z,10.33
2018-12-19T10:17:52.666Z,10.48
2018-12-19T10:18:52.657Z,10.54
2018-12-19T10:19:52.645Z,10.54
2018-12-19T10:20:52.635Z,10.64
2018-12-19T10:21:52.624Z,10.67
2018-12-19T10:22:52.615Z,10.82
2018-12-19T10:23:52.604Z,11.04
2018-12-19T10:24:52.599Z,11.08
2018-12-19T10:25:52.585Z,11.12
2018-12-19T10:26:52.575Z,11.18
2018-12-19T10:27:52.567Z,11.29
2018-12-19T10:28:52.561Z,11.33
2018-12-19T10:29:52.547Z,11.40
2018-12-19T10:30:52.747Z,11.54
2018-12-19T10:31:52.530Z,11.51
2018-12-19T10:32:52.521Z,11.51
2018-12-19T10:33:52.512Z,11.43
2018-12-19T10:34:52.507Z,11.36
2018-12-19T10:35:52.496Z,11.44
2018-12-19T10:36:52.490Z,11.12
2018-12-19T10:37:52.482Z,11.15
2018-12-19T10:38:52.468Z,11.02
2018-12-19T10:39:52.459Z,11.02
2018-12-19T10:40:52.451Z,10.99
2018-12-19T10:41:52.441Z,10.94
2018-12-19T10:42:52.438Z,10.86
2018-12-19T10:44:52.414Z,10.71
2018-12-19T10:45:52.403Z,10.72
2018-12-19T10:46:52.401Z,10.60
2018-12-19T10:47:52.385Z,10.68
2018-12-19T10:48:52.375Z,10.86
2018-12-19T10:49:52.366Z,10.71
2018-12-19T10:50:52.396Z,10.71
2018-12-19T10:51:52.347Z,10.78
2018-12-19T10:52:52.337Z,10.84
2018-12-19T10:53:52.326Z,10.69
2018-12-19T10:54:52.316Z,10.74
2018-12-19T10:55:52.309Z,10.69
2018-12-19T10:56:52.299Z,10.59
2018-12-19T10:57:52.337Z,10.57
2018-12-19T10:58:52.278Z,10.57
2018-12-19T10:59:52.268Z,10.56
2018-12-19T11:00:52.263Z,10.40
2018-12-19T11:01:52.252Z,10.34
2018-12-19T11:02:52.237Z,10.44
2018-12-19T11:03:52.229Z,10.44
2018-12-19T11:04:52.218Z,10.51
2018-12-19T11:05:54.471Z,10.42
2018-12-19T11:06:52.196Z,10.51
2018-12-19T11:07:52.189Z,10.53
2018-12-19T11:08:52.176Z,10.46
2018-12-19T11:09:52.166Z,10.60
2018-12-19T11:10:52.156Z,10.61
2018-12-19T11:11:52.147Z,10.57
2018-12-19T11:12:52.136Z,10.56
2018-12-19T11:13:52.127Z,10.64
2018-12-19T11:14:52.114Z,10.61
2018-12-19T11:15:52.104Z,10.67
2018-12-19T11:16:52.102Z,10.71
2018-12-19T11:17:52.083Z,10.75
2018-12-19T11:18:52.074Z,10.68
2018-12-19T11:19:52.062Z,10.67
2018-12-19T11:20:52.056Z,10.64
2018-12-19T11:21:52.041Z,10.61
2018-12-19T11:22:52.030Z,10.60
2018-12-19T11:23:52.020Z,10.67
2018-12-19T11:24:52.017Z,10.74
2018-12-19T11:25:52.000Z,10.68
2018-12-19T11:26:51.988Z,10.72
2018-12-19T11:27:51.978Z,10.75
2018-12-19T11:28:51.969Z,10.71
2018-12-19T11:29:51.956Z,10.71
2018-12-19T11:30:51.947Z,10.74
2018-12-19T11:31:51.935Z,10.67
2018-12-19T11:32:51.927Z,10.67
2018-12-19T11:33:51.913Z,10.76
2018-12-19T11:34:51.904Z,10.72
2018-12-19T11:35:51.894Z,10.69
2018-12-19T11:36:51.887Z,10.72
2018-12-19T11:37:51.871Z,10.72
2018-12-19T11:38:51.863Z,10.69
2018-12-19T11:39:51.851Z,10.69
2018-12-19T11:40:51.843Z,10.86
2018-12-19T11:41:51.828Z,10.81
2018-12-19T11:42:51.818Z,10.79
2018-12-19T11:43:51.809Z,10.79
2018-12-19T11:44:51.797Z,10.87
2018-12-19T11:45:51.789Z,10.84
2018-12-19T11:46:51.780Z,10.97
2018-12-19T11:47:51.967Z,11.04
2018-12-19T11:48:51.757Z,11.10
2018-12-19T11:49:51.745Z,11.11
2018-12-19T11:50:51.735Z,11.15
2018-12-19T11:51:51.724Z,11.35
2018-12-19T11:52:51.719Z,11.26
2018-12-19T11:53:51.708Z,11.37
2018-12-19T11:54:51.693Z,11.32
2018-12-19T11:55:51.683Z,11.19
2018-12-19T11:56:51.671Z,11.18
2018-12-19T11:57:51.659Z,11.27
2018-12-19T11:58:51.649Z,11.19
2018-12-19T11:59:51.640Z,11.18
2018-12-19T12:00:51.631Z,11.17
2018-12-19T12:01:51.617Z,11.15
2018-12-19T12:02:51.610Z,11.00
2018-12-19T12:03:51.601Z,11.02
2018-12-19T12:04:51.591Z,11.05
2018-12-19T12:05:51.576Z,11.14
2018-12-19T12:06:51.566Z,11.22
2018-12-19T12:07:51.560Z,11.29
2018-12-19T12:08:51.546Z,11.25
2018-12-19T12:09:51.535Z,11.19
2018-12-19T12:10:51.568Z,11.00
2018-12-19T12:11:51.514Z,10.79
2018-12-19T12:12:51.504Z,10.89
2018-12-19T12:13:51.496Z,10.82
2018-12-19T12:14:51.483Z,10.84
2018-12-19T12:15:51.474Z,10.82
2018-12-19T12:16:51.468Z,10.76
2018-12-19T12:17:51.454Z,10.76
2018-12-19T12:18:51.441Z,10.79
2018-12-19T12:19:51.431Z,10.76
2018-12-19T12:20:51.422Z,10.84
2018-12-19T12:21:51.410Z,10.84
2018-12-19T12:22:51.400Z,10.81
2018-12-19T12:23:51.391Z,10.82
2018-12-19T12:24:51.380Z,10.97
2018-12-19T12:25:51.369Z,10.92
2018-12-19T12:26:51.361Z,10.96
2018-12-19T12:27:51.358Z,11.07
2018-12-19T12:28:51.340Z,10.99
2018-12-19T12:29:51.328Z,10.86
2018-12-19T12:30:51.321Z,10.93
2018-12-19T12:31:51.359Z,10.86
2018-12-19T12:32:51.503Z,10.92
2018-12-19T12:33:51.288Z,10.89
2018-12-19T12:34:51.293Z,11.10
2018-12-19T12:35:51.268Z,11.07
2018-12-19T12:36:51.258Z,11.04
2018-12-19T12:37:51.248Z,10.99
2018-12-19T12:38:51.240Z,10.93
2018-12-19T12:39:51.430Z,10.92
2018-12-19T12:40:51.218Z,10.86
2018-12-19T12:41:52.408Z,10.90
2018-12-19T12:42:51.199Z,10.87
2018-12-19T12:43:51.188Z,10.78
2018-12-19T12:44:51.179Z,10.81
2018-12-19T12:45:51.170Z,10.76
2018-12-19T12:46:51.160Z,10.53
2018-12-19T12:47:51.149Z,10.68
2018-12-19T12:48:51.139Z,10.56
2018-12-19T12:49:51.126Z,10.54
2018-12-19T12:50:51.322Z,10.54
2018-12-19T12:51:51.114Z,10.59
2018-12-19T12:52:51.099Z,10.60
2018-12-19T12:53:51.084Z,10.67
2018-12-19T12:54:51.343Z,10.68
2018-12-19T12:55:51.068Z,10.59
2018-12-19T12:56:51.056Z,10.69
2018-12-19T12:57:51.047Z,10.75
2018-12-19T12:58:51.235Z,10.87
2018-12-19T12:59:51.022Z,10.87
2018-12-19T13:00:51.018Z,10.93
2018-12-19T13:01:51.005Z,10.92
2018-12-19T13:02:50.992Z,10.97
2018-12-19T13:03:50.985Z,10.93
2018-12-19T13:04:50.972Z,10.89
2018-12-19T13:05:50.961Z,10.93
2018-12-19T13:06:50.951Z,10.90
2018-12-19T13:07:50.943Z,10.90
2018-12-19T13:08:50.932Z,10.92
2018-12-19T13:09:50.922Z,10.96
2018-12-19T13:10:50.912Z,10.93
2018-12-19T13:11:50.904Z,11.10
2018-12-19T13:12:50.893Z,11.12
2018-12-19T13:13:50.882Z,11.17
2018-12-19T13:14:50.873Z,11.26